Moroni, Comoros

4:14 PM EAT on August 22, 2014 (GMT +0300)
Prince Said Ibrahim | Change Station
CLOSE
Current Station
Airport
Location: Hahaya,
Elevation: 95 ft
Nearby Weather Stations

Elev 95 ft 11.53 °S, 43.27 °E | Updated 14 minutes ago

Scattered Clouds
Scattered Clouds
82 °F
Feels Like 86 °F
N
15
Wind Variable Wind from WNW

Today
High -- | Low -- °F
--% Chance of Precip.
Yesterday
High -- | Low -- °F
Precip. -- in
6:16 AM 6:03 PM
Waning Crescent, 8% visible
Pressure 29.92 in
Visibility 6.2 miles
Clouds Scattered Clouds 2200 ft
Heat Index 86 °F
Dew Point 70 °F
Humidity 66%
Rainfall 0.00 in
Snow Depth Not available.
UV 3 out of 12
Pollen Not available.
Air Quality Not available.
Flu Activity Not available.
METAR FMCH 221300Z 30013KT 260V340 9999 SCT022 28/21 Q1013 NOSIG

More Conditions Fewer Conditions

Pressure 29.92 in
Visibility 6.2 miles
Clouds Scattered Clouds 2200 ft
Heat Index 86 °F
Dew Point 70 °F
Humidity 66%
Rainfall 0.00 in
Snow Depth Not available.
UV 3 out of 12
Pollen Not available.
Air Quality Not available.
Flu Activity Not available.
METAR FMCH 221300Z 30013KT 260V340 9999 SCT022 28/21 Q1013 NOSIG

More Conditions Fewer Conditions

10-Day Weather Forecast

Almanac

Astronomy

Aug. 22, 2014 Rise Set
Actual Time 6:16 AM EAT 6:03 PM EAT
Civil Twilight 5:55 AM EAT 6:25 PM EAT
Nautical Twilight 5:30 AM EAT 6:50 PM EAT
Astronomical Twilight 5:05 AM EAT 7:14 PM EAT
Moon 3:44 AM EAT 3:37 PM EAT
Length of Visible Light 12h 30m
Length of Day
11h 47m
Tomorrow will be 0m 34s longer.
Waning Crescent, 8% of the Moon is Illuminated
Today
Waning Crescent
Aug 25
New
Sep 2
First Quarter
Sep 8
Full
Sep 15
Last Quarter

Yesterday's Extremes

Country Highs Country Lows

Community

WunderPhotos

Upload Photos

1,746,160 photos uploaded!

WunderBlogs® & News

Nearby

Snow Depth

Not available.

Earthquake Activity

City Distance Mag. Time & Date
No recent earthquake activity has been reported nearby.
Minimum magnitude displayed is 2.5.

Coastal Water Temperatures

Place Temperature
No Stations Reporting

Nearby Weather Stations